createdAt,value
2018-08-16T00:00:09.450Z,18.59
2018-08-16T00:01:09.394Z,18.71
2018-08-16T00:02:09.284Z,18.71
2018-08-16T00:03:09.214Z,18.62
2018-08-16T00:04:09.125Z,18.64
2018-08-16T00:06:51.437Z,18.51
2018-08-16T00:07:51.328Z,18.51
2018-08-16T00:08:51.239Z,18.56
2018-08-16T00:09:51.165Z,18.51
2018-08-16T00:10:51.079Z,18.53
2018-08-16T00:11:52.067Z,18.56
2018-08-16T00:12:50.918Z,18.49
2018-08-16T00:13:50.847Z,18.50
2018-08-16T00:14:50.765Z,18.51
2018-08-16T00:15:50.691Z,18.50
2018-08-16T00:16:50.635Z,18.54
2018-08-16T00:19:32.905Z,18.54
2018-08-16T00:20:32.828Z,18.53
2018-08-16T00:21:32.754Z,18.56
2018-08-16T00:22:32.671Z,18.47
2018-08-16T00:23:32.592Z,18.41
2018-08-16T00:24:32.507Z,18.41
2018-08-16T00:25:32.427Z,18.47
2018-08-16T00:26:32.372Z,18.41
2018-08-16T00:27:32.291Z,18.38
2018-08-16T00:28:32.192Z,18.47
2018-08-16T00:29:32.113Z,18.46
2018-08-16T00:30:32.038Z,18.47
2018-08-16T00:31:31.973Z,18.35
2018-08-16T00:32:31.889Z,18.36
2018-08-16T00:33:31.786Z,18.36
2018-08-16T00:34:31.716Z,18.38
2018-08-16T00:35:31.636Z,18.34
2018-08-16T00:36:31.556Z,18.28
2018-08-16T00:37:31.490Z,18.25
2018-08-16T00:38:31.427Z,18.34
2018-08-16T00:39:31.315Z,18.31
2018-08-16T00:42:13.409Z,18.16
2018-08-16T00:43:13.384Z,18.19
2018-08-16T00:44:13.250Z,18.17
2018-08-16T00:46:55.410Z,18.17
2018-08-16T00:47:55.354Z,18.25
2018-08-16T00:48:55.250Z,18.10
2018-08-16T00:51:37.407Z,18.05
2018-08-16T00:52:37.342Z,18.14
2018-08-16T00:53:37.281Z,18.31
2018-08-16T00:54:37.193Z,18.35
2018-08-16T00:55:37.093Z,18.31
2018-08-16T00:56:37.132Z,18.42
2018-08-16T00:57:36.935Z,18.42
2018-08-16T00:58:36.896Z,18.36
2018-08-16T00:59:36.774Z,18.23
2018-08-16T01:00:36.700Z,18.26
2018-08-16T01:01:36.612Z,18.25
2018-08-16T01:02:36.550Z,18.34
2018-08-16T01:03:36.474Z,18.31
2018-08-16T01:04:36.389Z,18.28
2018-08-16T01:05:36.298Z,18.21
2018-08-16T01:06:36.230Z,18.13
2018-08-16T01:07:36.987Z,18.10
2018-08-16T01:08:36.089Z,18.10
2018-08-16T01:09:35.980Z,18.11
2018-08-16T01:12:17.910Z,18.13
2018-08-16T01:13:17.873Z,18.13
2018-08-16T01:14:19.532Z,18.09
2018-08-16T01:15:17.680Z,18.05
2018-08-16T01:16:17.588Z,17.89
2018-08-16T01:17:17.569Z,17.94
2018-08-16T01:18:17.441Z,17.87
2018-08-16T01:19:18.376Z,17.89
2018-08-16T01:20:17.328Z,17.89
2018-08-16T01:21:17.206Z,17.86
2018-08-16T01:22:17.129Z,17.86
2018-08-16T01:23:17.052Z,17.95
2018-08-16T01:24:16.976Z,17.94
2018-08-16T01:26:58.918Z,18.04
2018-08-16T01:27:58.843Z,17.96
2018-08-16T01:28:58.802Z,17.99
2018-08-16T01:29:58.688Z,17.91
2018-08-16T01:30:58.606Z,17.95
2018-08-16T01:31:58.522Z,17.87
2018-08-16T01:32:58.443Z,17.96
2018-08-16T01:33:59.393Z,17.87
2018-08-16T01:34:58.281Z,17.81
2018-08-16T01:37:40.457Z,17.70
2018-08-16T01:38:40.346Z,17.70
2018-08-16T01:39:40.307Z,17.70
2018-08-16T01:42:22.438Z,17.74
2018-08-16T01:43:22.352Z,17.74
2018-08-16T01:44:22.263Z,17.68
2018-08-16T01:45:22.241Z,17.70
2018-08-16T01:46:22.104Z,17.76
2018-08-16T01:47:22.044Z,17.73
2018-08-16T01:48:21.946Z,17.73
2018-08-16T01:49:21.875Z,17.73
2018-08-16T01:50:21.802Z,17.70
2018-08-16T01:53:03.923Z,17.66
2018-08-16T01:54:03.862Z,17.66
2018-08-16T01:55:03.816Z,17.68
2018-08-16T01:56:03.692Z,17.70
2018-08-16T01:57:03.605Z,17.65
2018-08-16T01:58:03.535Z,17.65
2018-08-16T01:59:03.446Z,17.63
2018-08-16T02:00:04.388Z,17.68
2018-08-16T02:01:03.294Z,17.66
2018-08-16T02:02:03.213Z,17.62
2018-08-16T02:03:03.135Z,17.63
2018-08-16T02:05:45.456Z,17.66
2018-08-16T02:06:45.355Z,17.58
2018-08-16T02:07:45.275Z,17.66
2018-08-16T02:08:45.203Z,17.58
2018-08-16T02:09:45.113Z,17.65
2018-08-16T02:10:45.066Z,17.63
2018-08-16T02:11:44.946Z,17.60
2018-08-16T02:12:44.886Z,17.63
2018-08-16T02:13:44.801Z,17.63
2018-08-16T02:14:44.719Z,17.62
2018-08-16T02:15:44.651Z,17.54
2018-08-16T02:16:44.564Z,17.47
2018-08-16T02:17:44.498Z,17.49
2018-08-16T02:18:44.421Z,17.46
2018-08-16T02:19:44.315Z,17.45
2018-08-16T02:20:44.258Z,17.53
2018-08-16T02:21:44.157Z,17.43
2018-08-16T02:22:44.107Z,17.46
2018-08-16T02:23:44.004Z,17.45
2018-08-16T02:24:43.935Z,17.36
2018-08-16T02:25:43.846Z,17.39
2018-08-16T02:26:43.759Z,17.38
2018-08-16T02:27:43.722Z,17.38
2018-08-16T02:28:43.612Z,17.33
2018-08-16T02:29:43.516Z,17.38
2018-08-16T02:30:43.460Z,17.43
2018-08-16T02:31:43.379Z,17.45
2018-08-16T02:32:43.321Z,17.39
2018-08-16T02:33:43.295Z,17.42
2018-08-16T02:36:25.459Z,17.27
2018-08-16T02:39:07.440Z,17.32
2018-08-16T02:40:07.361Z,17.33
2018-08-16T02:41:07.277Z,17.36
2018-08-16T02:42:07.217Z,17.30
2018-08-16T02:43:07.119Z,17.27
2018-08-16T02:44:07.051Z,17.17
2018-08-16T02:45:06.961Z,17.20
2018-08-16T02:46:06.891Z,17.12
2018-08-16T02:47:06.899Z,17.10
2018-08-16T02:49:48.941Z,17.14
2018-08-16T02:50:48.903Z,17.21
2018-08-16T02:51:48.809Z,17.17
2018-08-16T02:52:48.720Z,17.14
2018-08-16T02:53:48.647Z,17.10
2018-08-16T02:54:48.557Z,17.10
2018-08-16T02:55:48.472Z,17.17
2018-08-16T02:56:48.392Z,17.21
2018-08-16T02:57:48.303Z,17.06
2018-08-16T02:58:48.288Z,17.14
2018-08-16T02:59:48.150Z,17.05
2018-08-16T03:00:48.070Z,17.09
2018-08-16T03:01:47.995Z,17.12
2018-08-16T03:02:47.908Z,17.12
2018-08-16T03:03:47.862Z,17.10
2018-08-16T03:04:47.766Z,17.09
2018-08-16T03:05:47.664Z,16.98
2018-08-16T03:08:29.982Z,17.07
2018-08-16T03:09:29.865Z,17.02
2018-08-16T03:10:29.795Z,16.99
2018-08-16T03:11:29.724Z,17.02
2018-08-16T03:12:29.647Z,16.98
2018-08-16T03:13:29.559Z,17.02
2018-08-16T03:14:29.467Z,17.00
2018-08-16T03:17:11.446Z,16.99
2018-08-16T03:18:11.407Z,16.87
2018-08-16T03:19:11.327Z,16.88
2018-08-16T03:20:11.228Z,16.91
2018-08-16T03:21:11.141Z,16.88
2018-08-16T03:22:11.051Z,16.90
2018-08-16T03:23:11.003Z,16.91
2018-08-16T03:24:11.913Z,16.85
2018-08-16T03:25:10.807Z,16.91
2018-08-16T03:26:10.747Z,16.90
2018-08-16T03:27:10.657Z,16.88
2018-08-16T03:28:10.607Z,16.90
2018-08-16T03:29:10.497Z,16.85
2018-08-16T03:31:52.467Z,16.91
2018-08-16T03:32:53.401Z,16.85
2018-08-16T03:33:52.296Z,16.88
2018-08-16T03:34:52.219Z,16.88
2018-08-16T03:35:52.142Z,16.87
2018-08-16T03:36:53.082Z,16.87
2018-08-16T03:37:51.984Z,16.87
2018-08-16T03:38:51.914Z,16.90
2018-08-16T03:39:51.818Z,16.91
2018-08-16T03:40:51.741Z,16.84
2018-08-16T03:41:51.648Z,16.88
2018-08-16T03:42:51.574Z,16.78
2018-08-16T03:43:51.511Z,16.84
2018-08-16T03:44:51.426Z,16.80
2018-08-16T03:45:51.332Z,16.84
2018-08-16T03:46:51.268Z,16.82
2018-08-16T03:47:51.180Z,16.91
2018-08-16T03:48:52.125Z,16.82
2018-08-16T03:49:51.015Z,16.85
2018-08-16T03:50:50.965Z,16.82
2018-08-16T03:51:50.855Z,16.78
2018-08-16T03:52:50.804Z,16.82
2018-08-16T03:53:50.716Z,16.82
2018-08-16T03:54:50.627Z,16.77
2018-08-16T03:55:50.538Z,16.75
2018-08-16T03:56:50.458Z,16.78
2018-08-16T03:57:50.386Z,16.78
2018-08-16T03:58:50.313Z,16.77
2018-08-16T03:59:50.221Z,16.82
2018-08-16T04:00:50.154Z,16.84
2018-08-16T04:01:50.056Z,16.78
2018-08-16T04:04:31.977Z,16.80
2018-08-16T04:05:31.884Z,16.80
2018-08-16T04:06:31.814Z,16.81
2018-08-16T04:07:31.724Z,16.75
2018-08-16T04:08:31.678Z,16.78
2018-08-16T04:09:31.563Z,16.75
2018-08-16T04:10:31.485Z,16.81
2018-08-16T04:11:31.428Z,16.82
2018-08-16T04:12:31.332Z,16.81
2018-08-16T04:15:13.490Z,16.82
2018-08-16T04:17:55.471Z,16.82
2018-08-16T04:18:55.415Z,16.82
2018-08-16T04:19:55.306Z,16.82
2018-08-16T04:22:37.461Z,16.87
2018-08-16T04:23:37.427Z,16.85
2018-08-16T04:24:37.327Z,16.82
2018-08-16T04:25:37.254Z,16.81
2018-08-16T04:26:37.145Z,16.78
2018-08-16T04:29:18.993Z,16.78
2018-08-16T04:30:18.916Z,16.80
2018-08-16T04:31:18.808Z,16.77
2018-08-16T04:34:00.974Z,16.80
2018-08-16T04:35:00.978Z,16.78
2018-08-16T04:36:00.806Z,16.78
2018-08-16T04:37:00.735Z,16.81
2018-08-16T04:38:00.674Z,16.82
2018-08-16T04:39:00.732Z,16.82
2018-08-16T04:40:00.798Z,16.78
2018-08-16T04:41:00.698Z,16.82
2018-08-16T04:42:00.391Z,16.85
2018-08-16T04:44:42.489Z,16.81
2018-08-16T04:45:42.415Z,16.91
2018-08-16T04:46:42.308Z,16.85
2018-08-16T04:47:42.234Z,16.81
2018-08-16T04:48:42.236Z,16.87
2018-08-16T04:49:42.113Z,16.88
2018-08-16T04:50:42.008Z,16.82
2018-08-16T04:51:41.935Z,16.84
2018-08-16T04:52:41.849Z,16.91
2018-08-16T04:53:41.759Z,16.92
2018-08-16T04:54:41.673Z,16.90
2018-08-16T04:55:42.634Z,16.95
2018-08-16T04:56:41.528Z,16.87
2018-08-16T04:57:41.435Z,16.84
2018-08-16T04:58:41.360Z,16.92
2018-08-16T05:01:23.518Z,16.90
2018-08-16T05:04:05.481Z,16.87
2018-08-16T05:06:47.519Z,16.90
2018-08-16T05:07:47.399Z,16.98
2018-08-16T05:08:47.305Z,17.00
2018-08-16T05:11:29.477Z,17.06
2018-08-16T05:12:30.417Z,17.09
2018-08-16T05:13:29.312Z,17.09
2018-08-16T05:16:11.495Z,17.17
2018-08-16T05:17:11.434Z,17.15
2018-08-16T05:18:11.320Z,17.14
2018-08-16T05:19:11.247Z,17.18
2018-08-16T05:20:11.167Z,17.18
2018-08-16T05:21:12.121Z,17.14
2018-08-16T05:22:11.007Z,17.17
2018-08-16T05:24:52.986Z,17.30
2018-08-16T05:25:52.907Z,17.39
2018-08-16T05:26:52.871Z,17.38
2018-08-16T05:27:52.741Z,17.33
2018-08-16T05:28:52.665Z,17.42
2018-08-16T05:29:52.584Z,17.63
2018-08-16T05:30:52.507Z,17.60
2018-08-16T05:31:52.462Z,17.74
2018-08-16T05:32:52.352Z,17.73
2018-08-16T05:33:52.264Z,17.91
2018-08-16T05:34:52.208Z,17.95
2018-08-16T05:35:52.125Z,18.04
2018-08-16T05:36:52.031Z,17.98
2018-08-16T05:37:52.965Z,18.13
2018-08-16T05:38:51.875Z,18.20
2018-08-16T05:41:33.984Z,18.35
2018-08-16T05:42:33.944Z,18.29
2018-08-16T05:43:33.847Z,18.35
2018-08-16T05:44:33.754Z,18.41
2018-08-16T05:45:33.670Z,18.51
2018-08-16T05:48:15.515Z,18.66
2018-08-16T05:50:57.517Z,18.84
2018-08-16T05:53:39.509Z,18.90
2018-08-16T05:56:21.491Z,19.10
2018-08-16T05:57:21.435Z,19.24
2018-08-16T05:58:21.350Z,19.31
2018-08-16T05:59:21.289Z,19.34
2018-08-16T06:00:21.174Z,19.31
2018-08-16T06:03:03.002Z,19.46
2018-08-16T06:04:02.936Z,19.42
2018-08-16T06:05:02.852Z,19.53
2018-08-16T06:06:02.766Z,19.62
2018-08-16T06:07:02.677Z,19.57
2018-08-16T06:08:02.610Z,19.49
2018-08-16T06:09:02.579Z,19.57
2018-08-16T06:10:02.452Z,19.57
2018-08-16T06:11:02.370Z,19.53
2018-08-16T06:12:02.298Z,19.64
2018-08-16T06:13:02.196Z,19.61
2018-08-16T06:14:02.250Z,19.72
2018-08-16T06:15:02.046Z,19.80
2018-08-16T06:17:44.005Z,19.79
2018-08-16T06:18:43.925Z,19.89
2018-08-16T06:19:43.863Z,19.76
2018-08-16T06:22:26.002Z,19.80
2018-08-16T06:23:25.924Z,19.98
2018-08-16T06:24:25.859Z,20.04
2018-08-16T06:27:07.996Z,20.19
2018-08-16T06:28:07.933Z,20.23
2018-08-16T06:29:07.849Z,19.97
2018-08-16T06:30:07.787Z,20.04
2018-08-16T06:31:07.707Z,19.90
2018-08-16T06:32:07.631Z,19.90
2018-08-16T06:33:07.542Z,19.80
2018-08-16T06:34:07.461Z,19.87
2018-08-16T06:35:07.402Z,19.82
2018-08-16T06:36:07.302Z,19.97
2018-08-16T06:37:07.259Z,20.13
2018-08-16T06:39:49.545Z,20.58
2018-08-16T06:40:49.458Z,20.66
2018-08-16T06:41:49.365Z,20.76
2018-08-16T06:44:31.541Z,21.13
2018-08-16T06:45:31.449Z,21.36
2018-08-16T06:46:31.354Z,21.51
2018-08-16T06:49:13.532Z,21.56
2018-08-16T06:50:13.444Z,21.49
2018-08-16T06:51:13.573Z,21.37
2018-08-16T06:53:55.514Z,21.37
2018-08-16T06:54:55.453Z,21.37
2018-08-16T06:55:55.389Z,21.36
2018-08-16T06:56:55.309Z,21.42
2018-08-16T06:57:55.224Z,21.55
2018-08-16T07:00:37.548Z,21.37
2018-08-16T07:01:37.488Z,21.51
2018-08-16T07:02:37.382Z,21.49
2018-08-16T07:03:37.296Z,21.58
2018-08-16T07:04:37.202Z,21.55
2018-08-16T07:05:37.134Z,21.52
2018-08-16T07:06:37.084Z,21.46
2018-08-16T07:09:19.038Z,21.21
2018-08-16T07:10:19.014Z,21.09
2018-08-16T07:11:18.889Z,21.01
2018-08-16T07:12:18.812Z,21.12
2018-08-16T07:13:18.707Z,21.15
2018-08-16T07:16:01.037Z,21.11
2018-08-16T07:17:00.975Z,21.06
2018-08-16T07:18:00.858Z,21.30
2018-08-16T07:19:00.889Z,21.34
2018-08-16T07:20:00.713Z,21.43
2018-08-16T07:22:43.042Z,21.63
2018-08-16T07:23:42.964Z,21.64
2018-08-16T07:24:42.882Z,21.75
2018-08-16T07:25:42.795Z,21.81
2018-08-16T07:26:42.747Z,21.90
2018-08-16T07:27:42.642Z,21.90
2018-08-16T07:28:42.550Z,21.82
2018-08-16T07:29:42.498Z,22.08
2018-08-16T07:30:42.414Z,22.15
2018-08-16T07:31:42.330Z,22.20
2018-08-16T07:32:42.401Z,22.27
2018-08-16T07:33:42.228Z,22.33
2018-08-16T07:34:42.106Z,22.26
2018-08-16T07:35:42.019Z,22.42
2018-08-16T07:36:41.930Z,22.30
2018-08-16T07:37:41.869Z,22.56
2018-08-16T07:38:41.816Z,22.57
2018-08-16T07:39:41.730Z,22.52
2018-08-16T07:40:41.632Z,22.67
2018-08-16T07:41:41.558Z,22.69
2018-08-16T07:42:41.512Z,22.81
2018-08-16T07:43:41.398Z,22.79
2018-08-16T07:44:41.373Z,22.93
2018-08-16T07:45:41.346Z,23.06
2018-08-16T07:46:41.179Z,23.14
2018-08-16T07:49:23.080Z,23.41
2018-08-16T07:50:22.979Z,23.54
2018-08-16T07:51:22.992Z,23.60
2018-08-16T07:54:05.048Z,23.41
2018-08-16T07:55:04.990Z,23.35
2018-08-16T07:56:04.884Z,23.63
2018-08-16T07:58:47.055Z,23.50
2018-08-16T07:59:46.996Z,23.82
2018-08-16T08:00:46.890Z,23.96
2018-08-16T08:01:46.821Z,24.08
2018-08-16T08:02:46.741Z,24.30
2018-08-16T08:03:46.666Z,24.55
2018-08-16T08:04:46.617Z,24.80
2018-08-16T08:07:28.553Z,24.79
2018-08-16T08:08:28.489Z,24.59
2018-08-16T08:09:28.581Z,24.86
2018-08-16T08:10:28.368Z,24.79
2018-08-16T08:11:28.252Z,24.56
2018-08-16T08:12:28.213Z,24.70
2018-08-16T08:13:28.102Z,24.74
2018-08-16T08:14:28.046Z,24.99
2018-08-16T08:15:28.031Z,25.42
2018-08-16T08:16:27.897Z,25.90
2018-08-16T08:17:27.797Z,26.04
2018-08-16T08:18:27.738Z,25.91
2018-08-16T08:19:27.656Z,25.35
2018-08-16T08:20:28.606Z,25.23
2018-08-16T08:21:27.491Z,25.34
2018-08-16T08:22:27.434Z,25.34
2018-08-16T08:23:27.364Z,25.26
2018-08-16T08:24:27.305Z,25.64
2018-08-16T08:25:27.242Z,25.34
2018-08-16T08:28:09.046Z,27.42
2018-08-16T08:29:09.013Z,28.09
2018-08-16T08:30:08.895Z,28.25
2018-08-16T08:31:08.861Z,28.64
2018-08-16T08:32:08.760Z,28.95
2018-08-16T08:33:08.675Z,29.10
2018-08-16T08:34:08.614Z,29.84
2018-08-16T08:36:50.572Z,28.30
2018-08-16T08:37:50.481Z,27.96
2018-08-16T08:38:50.439Z,28.55
2018-08-16T08:39:50.363Z,28.43
2018-08-16T08:40:50.261Z,28.23
2018-08-16T08:41:50.232Z,28.25
2018-08-16T08:42:50.132Z,28.39
2018-08-16T08:43:50.053Z,27.96
2018-08-16T08:44:49.986Z,27.95
2018-08-16T08:45:49.925Z,27.43
2018-08-16T08:46:49.856Z,27.46
2018-08-16T08:49:32.064Z,28.91
2018-08-16T08:52:14.076Z,29.64
2018-08-16T08:54:56.062Z,29.73
2018-08-16T08:57:38.072Z,29.78
2018-08-16T08:58:37.989Z,29.42
2018-08-16T08:59:37.932Z,29.36
2018-08-16T09:02:20.230Z,30.37
2018-08-16T09:03:20.037Z,30.49
2018-08-16T09:04:19.928Z,30.30
2018-08-16T09:07:02.078Z,29.18
2018-08-16T09:08:02.038Z,29.21
2018-08-16T09:09:01.916Z,29.58
2018-08-16T09:10:01.858Z,29.08
2018-08-16T09:11:01.798Z,29.32
2018-08-16T09:12:01.725Z,29.44
2018-08-16T09:13:01.700Z,28.97
2018-08-16T09:14:01.586Z,28.06
2018-08-16T09:15:01.507Z,27.83
2018-08-16T09:16:01.469Z,27.81
2018-08-16T09:17:01.382Z,28.20
2018-08-16T09:18:01.326Z,28.38
2018-08-16T09:19:01.278Z,29.11
2018-08-16T09:21:43.074Z,28.94
2018-08-16T09:22:43.020Z,27.84
2018-08-16T09:23:42.972Z,27.42
2018-08-16T09:26:25.066Z,28.43
2018-08-16T09:27:25.021Z,29.17
2018-08-16T09:28:24.994Z,29.86
2018-08-16T09:29:24.884Z,30.44
2018-08-16T09:30:24.796Z,30.86
2018-08-16T09:33:07.085Z,30.46
2018-08-16T09:34:07.036Z,30.57
2018-08-16T09:35:06.933Z,31.00
2018-08-16T09:36:06.902Z,30.98
2018-08-16T09:37:06.812Z,29.86
2018-08-16T09:38:06.735Z,29.82
2018-08-16T09:39:06.698Z,30.01
2018-08-16T09:40:06.598Z,29.76
2018-08-16T09:41:06.536Z,30.10
2018-08-16T09:42:06.473Z,30.86
2018-08-16T09:43:06.395Z,31.25
2018-08-16T09:44:06.362Z,31.76
2018-08-16T09:45:06.270Z,31.54
2018-08-16T09:46:06.230Z,30.81
2018-08-16T09:47:06.143Z,30.72
2018-08-16T09:48:06.084Z,31.25
2018-08-16T09:49:06.055Z,31.12
2018-08-16T09:50:05.957Z,30.98
2018-08-16T09:51:05.906Z,31.60
2018-08-16T09:53:48.102Z,30.98
2018-08-16T09:54:48.039Z,31.15
2018-08-16T09:55:47.961Z,31.28
2018-08-16T09:58:30.074Z,31.28
2018-08-16T09:59:30.062Z,31.13
2018-08-16T10:00:29.954Z,31.01
2018-08-16T10:03:12.088Z,30.86
2018-08-16T10:04:12.069Z,30.86
2018-08-16T10:05:11.950Z,31.05
2018-08-16T10:06:11.896Z,31.37
2018-08-16T10:07:11.979Z,31.45
2018-08-16T10:08:11.762Z,31.19
2018-08-16T10:09:11.691Z,31.38
2018-08-16T10:10:11.679Z,30.56
2018-08-16T10:11:11.577Z,30.45
2018-08-16T10:12:11.502Z,31.07
2018-08-16T10:13:11.436Z,31.16
2018-08-16T10:15:53.611Z,30.01
2018-08-16T10:18:35.612Z,28.97
2018-08-16T10:19:35.537Z,29.33
2018-08-16T10:20:35.507Z,29.74
2018-08-16T10:21:35.411Z,30.63
2018-08-16T10:22:35.355Z,31.00
2018-08-16T10:23:35.294Z,31.22
2018-08-16T10:24:35.214Z,31.30
2018-08-16T10:25:35.201Z,30.98
2018-08-16T10:26:35.088Z,30.91
2018-08-16T10:29:17.103Z,30.75
2018-08-16T10:30:17.085Z,31.19
2018-08-16T10:31:16.959Z,31.54
2018-08-16T10:32:16.913Z,31.00
2018-08-16T10:33:16.843Z,30.97
2018-08-16T10:35:59.110Z,30.88
2018-08-16T10:38:41.111Z,31.64
2018-08-16T10:39:41.052Z,31.62
2018-08-16T10:40:40.986Z,31.49
2018-08-16T10:41:40.910Z,31.25
2018-08-16T10:42:40.844Z,31.15
2018-08-16T10:43:40.789Z,31.03
2018-08-16T10:44:40.715Z,30.82
2018-08-16T10:45:41.693Z,30.54
2018-08-16T10:46:40.591Z,30.72
2018-08-16T10:47:40.529Z,30.97
2018-08-16T10:48:40.451Z,31.60
2018-08-16T10:49:40.401Z,31.72
2018-08-16T10:50:40.341Z,31.67
2018-08-16T10:53:22.626Z,30.59
2018-08-16T10:54:22.554Z,30.86
2018-08-16T10:55:22.501Z,30.10
2018-08-16T10:58:04.600Z,30.86
2018-08-16T10:59:04.557Z,31.13
2018-08-16T11:00:04.474Z,30.86
2018-08-16T11:01:04.478Z,30.66
2018-08-16T11:02:04.367Z,30.93
2018-08-16T11:03:04.291Z,31.38
2018-08-16T11:04:04.215Z,31.91
2018-08-16T11:05:04.153Z,31.68
2018-08-16T11:06:04.113Z,31.94
2018-08-16T11:07:04.050Z,31.79
2018-08-16T11:08:03.983Z,31.47
2018-08-16T11:10:46.127Z,31.41
2018-08-16T11:11:47.111Z,30.97
2018-08-16T11:12:45.981Z,30.81
2018-08-16T11:15:28.108Z,30.57
2018-08-16T11:16:28.062Z,30.66
2018-08-16T11:17:27.991Z,30.79
2018-08-16T11:18:27.921Z,31.20
2018-08-16T11:19:27.850Z,31.22
2018-08-16T11:20:27.797Z,31.25
2018-08-16T11:21:27.752Z,30.83
2018-08-16T11:22:27.670Z,30.76
2018-08-16T11:23:28.231Z,30.76
2018-08-16T11:24:27.526Z,30.66
2018-08-16T11:25:27.500Z,30.82
2018-08-16T11:26:27.425Z,30.48
2018-08-16T11:27:27.340Z,30.59
2018-08-16T11:28:27.290Z,30.97
2018-08-16T11:29:27.308Z,30.82
2018-08-16T11:30:27.147Z,30.66
2018-08-16T11:31:27.100Z,29.82
2018-08-16T11:32:27.045Z,29.35
2018-08-16T11:33:26.936Z,29.60
2018-08-16T11:36:09.112Z,30.11
2018-08-16T11:37:10.064Z,30.18
2018-08-16T11:38:08.985Z,30.60
2018-08-16T11:39:08.942Z,31.07
2018-08-16T11:40:08.860Z,31.03
2018-08-16T11:42:51.129Z,29.73
2018-08-16T11:45:33.113Z,29.58
2018-08-16T11:46:33.075Z,29.39
2018-08-16T11:47:32.992Z,29.23
2018-08-16T11:48:32.945Z,29.52
2018-08-16T11:49:32.852Z,29.88
2018-08-16T11:50:32.790Z,29.94
2018-08-16T11:51:32.758Z,29.97
2018-08-16T11:52:32.684Z,30.36
2018-08-16T11:53:32.605Z,30.46
2018-08-16T11:54:32.540Z,31.10
2018-08-16T11:55:32.466Z,31.30
2018-08-16T11:56:32.407Z,31.01
2018-08-16T11:57:32.327Z,31.01
2018-08-16T11:58:32.293Z,30.94
2018-08-16T11:59:32.203Z,30.91
2018-08-16T12:00:32.154Z,30.76
2018-08-16T12:01:32.075Z,30.76
2018-08-16T12:02:31.998Z,30.57
2018-08-16T12:03:31.987Z,30.60
2018-08-16T12:04:31.886Z,30.48
2018-08-16T12:05:31.808Z,30.45
2018-08-16T12:06:31.739Z,29.92
2018-08-16T12:07:31.673Z,30.08
2018-08-16T12:08:31.622Z,30.06
2018-08-16T12:09:31.520Z,30.08
2018-08-16T12:12:13.641Z,29.86
2018-08-16T12:14:55.653Z,29.73
2018-08-16T12:15:55.599Z,29.58
2018-08-16T12:16:55.494Z,29.62
2018-08-16T12:19:37.668Z,28.85
2018-08-16T12:22:19.630Z,28.64
2018-08-16T12:23:19.571Z,28.64
2018-08-16T12:24:19.507Z,28.65
2018-08-16T12:25:19.439Z,28.69
2018-08-16T12:26:19.354Z,28.72
2018-08-16T12:29:01.706Z,28.11
2018-08-16T12:30:01.605Z,28.05
2018-08-16T12:31:01.490Z,28.05
2018-08-16T12:33:43.630Z,27.61
2018-08-16T12:34:43.621Z,27.69
2018-08-16T12:35:43.494Z,27.58
2018-08-16T12:38:25.647Z,27.61
2018-08-16T12:39:25.586Z,27.68
2018-08-16T12:40:25.513Z,28.14
2018-08-16T12:41:25.445Z,28.38
2018-08-16T12:42:25.375Z,28.72
2018-08-16T12:43:25.292Z,28.98
2018-08-16T12:44:25.298Z,29.11
2018-08-16T12:45:25.173Z,29.21
2018-08-16T12:46:25.123Z,29.14
2018-08-16T12:47:25.066Z,29.23
2018-08-16T12:48:24.926Z,29.27
2018-08-16T12:49:24.863Z,29.32
2018-08-16T12:50:24.836Z,29.52
2018-08-16T12:51:24.734Z,28.95
2018-08-16T12:52:24.667Z,28.61
2018-08-16T12:53:24.580Z,28.64
2018-08-16T12:54:24.509Z,28.72
2018-08-16T12:57:06.683Z,28.69
2018-08-16T12:58:06.581Z,28.72
2018-08-16T12:59:06.499Z,28.61
2018-08-16T13:00:06.452Z,28.60
2018-08-16T13:01:06.375Z,28.65
2018-08-16T13:03:48.679Z,28.97
2018-08-16T13:06:30.726Z,28.50
2018-08-16T13:07:30.594Z,28.57
2018-08-16T13:08:30.536Z,28.54
2018-08-16T13:11:12.683Z,28.74
2018-08-16T13:12:12.599Z,28.91
2018-08-16T13:13:12.506Z,28.32
2018-08-16T13:14:12.448Z,28.50
2018-08-16T13:15:12.362Z,28.70
2018-08-16T13:16:12.320Z,29.02
2018-08-16T13:17:12.231Z,28.97
2018-08-16T13:18:13.249Z,29.11
2018-08-16T13:19:12.075Z,28.77
2018-08-16T13:20:12.039Z,28.73
2018-08-16T13:21:11.957Z,28.65
2018-08-16T13:22:11.870Z,28.55
2018-08-16T13:23:11.835Z,28.48
2018-08-16T13:25:53.657Z,28.69
2018-08-16T13:26:53.600Z,28.45
2018-08-16T13:27:53.531Z,28.46
2018-08-16T13:28:53.468Z,28.60
2018-08-16T13:29:53.363Z,28.60
2018-08-16T13:32:35.684Z,28.91
2018-08-16T13:35:17.673Z,28.67
2018-08-16T13:37:59.720Z,28.64
2018-08-16T13:38:59.622Z,28.69
2018-08-16T13:39:59.528Z,28.80
2018-08-16T13:40:59.444Z,28.97
2018-08-16T13:41:59.373Z,28.91
2018-08-16T13:42:59.325Z,29.10
2018-08-16T13:43:59.251Z,29.12
2018-08-16T13:44:59.164Z,29.25
2018-08-16T13:45:59.090Z,29.39
2018-08-16T13:48:41.187Z,29.21
2018-08-16T13:51:23.181Z,29.41
2018-08-16T13:54:05.214Z,29.20
2018-08-16T13:55:05.213Z,29.21
2018-08-16T13:56:05.036Z,29.20
2018-08-16T13:58:47.204Z,29.25
2018-08-16T13:59:47.168Z,29.15
2018-08-16T14:00:47.794Z,29.05
2018-08-16T14:01:47.325Z,29.14
2018-08-16T14:02:47.275Z,29.08
2018-08-16T14:03:46.909Z,28.95
2018-08-16T14:04:46.748Z,28.72
2018-08-16T14:05:46.698Z,28.73
2018-08-16T14:06:46.612Z,28.69
2018-08-16T14:07:46.528Z,28.77
2018-08-16T14:08:46.454Z,28.73
2018-08-16T14:09:46.412Z,28.98
2018-08-16T14:10:46.323Z,29.10
2018-08-16T14:11:46.276Z,29.21
2018-08-16T14:12:46.208Z,29.27
2018-08-16T14:15:28.213Z,29.37
2018-08-16T14:16:28.114Z,29.25
2018-08-16T14:17:28.048Z,29.17
2018-08-16T14:18:27.968Z,29.10
2018-08-16T14:19:27.884Z,29.08
2018-08-16T14:20:28.859Z,28.97
2018-08-16T14:21:27.761Z,28.82
2018-08-16T14:22:27.696Z,28.69
2018-08-16T14:23:27.621Z,28.80
2018-08-16T14:26:09.784Z,28.94
2018-08-16T14:28:51.695Z,29.11
2018-08-16T14:29:51.633Z,29.14
2018-08-16T14:30:51.554Z,29.18
2018-08-16T14:31:51.496Z,29.25
2018-08-16T14:32:51.405Z,29.37
2018-08-16T14:33:51.335Z,29.44
2018-08-16T14:34:51.241Z,29.33
2018-08-16T14:35:51.205Z,29.44
2018-08-16T14:36:51.130Z,29.33
2018-08-16T14:37:51.043Z,29.12
2018-08-16T14:38:51.081Z,29.21
2018-08-16T14:39:50.918Z,29.08
2018-08-16T14:40:50.824Z,29.11
2018-08-16T14:41:50.771Z,29.21
2018-08-16T14:42:50.682Z,29.30
2018-08-16T14:45:32.702Z,29.32
2018-08-16T14:46:32.638Z,29.42
2018-08-16T14:47:32.552Z,29.52
2018-08-16T14:48:32.479Z,29.44
2018-08-16T14:49:32.401Z,29.45
2018-08-16T14:52:14.723Z,29.37
2018-08-16T14:53:14.657Z,29.32
2018-08-16T14:54:14.549Z,29.35
2018-08-16T14:56:56.734Z,29.08
2018-08-16T14:57:56.655Z,28.95
2018-08-16T14:58:56.548Z,28.74
2018-08-16T14:59:56.506Z,28.64
2018-08-16T15:00:56.433Z,28.54
2018-08-16T15:01:56.351Z,28.65
2018-08-16T15:02:56.294Z,28.62
2018-08-16T15:05:38.190Z,28.74
2018-08-16T15:08:20.226Z,28.61
2018-08-16T15:09:20.162Z,28.74
2018-08-16T15:10:20.061Z,28.77
2018-08-16T15:11:19.985Z,28.85
2018-08-16T15:12:19.912Z,28.89
2018-08-16T15:13:19.934Z,28.82
2018-08-16T15:14:19.763Z,28.65
2018-08-16T15:15:19.711Z,28.83
2018-08-16T15:16:19.649Z,28.88
2018-08-16T15:17:19.554Z,29.08
2018-08-16T15:18:19.489Z,29.11
2018-08-16T15:19:19.396Z,29.20
2018-08-16T15:20:19.342Z,29.20
2018-08-16T15:21:19.274Z,29.12
2018-08-16T15:22:19.200Z,29.15
2018-08-16T15:23:19.121Z,29.10
2018-08-16T15:24:19.069Z,29.15
2018-08-16T15:25:18.969Z,29.08
2018-08-16T15:26:18.895Z,29.08
2018-08-16T15:27:18.823Z,29.08
2018-08-16T15:28:18.785Z,29.15
2018-08-16T15:29:18.701Z,28.98
2018-08-16T15:30:18.595Z,28.95
2018-08-16T15:33:00.721Z,28.89
2018-08-16T15:34:00.635Z,28.94
2018-08-16T15:35:00.684Z,28.98
2018-08-16T15:37:42.755Z,28.94
2018-08-16T15:38:42.653Z,28.94
2018-08-16T15:39:42.609Z,28.95
2018-08-16T15:40:42.548Z,28.95
2018-08-16T15:41:42.422Z,28.85
2018-08-16T15:42:43.270Z,28.94
2018-08-16T15:43:42.276Z,28.94
2018-08-16T15:44:43.250Z,28.69
2018-08-16T15:45:42.136Z,28.95
2018-08-16T15:48:24.213Z,28.85
2018-08-16T15:49:24.189Z,28.80
2018-08-16T15:50:24.108Z,28.92
2018-08-16T15:51:24.004Z,28.92
2018-08-16T15:52:23.950Z,28.91
2018-08-16T15:53:23.868Z,28.94